createdAt,value
2019-06-01T00:02:00.477Z,27.50
2019-06-01T00:04:31.192Z,27.45
2019-06-01T00:07:01.432Z,21.40
2019-06-01T00:09:32.740Z,22.90
2019-06-01T00:12:02.961Z,22.02
2019-06-01T00:14:33.615Z,20.77
2019-06-01T00:17:06.598Z,21.52
2019-06-01T00:19:37.582Z,21.07
2019-06-01T00:22:07.985Z,18.55
2019-06-01T00:24:38.472Z,21.87
2019-06-01T00:27:08.971Z,20.48
2019-06-01T00:29:40.642Z,16.97
2019-06-01T00:32:11.396Z,20.85
2019-06-01T00:34:41.864Z,23.20
2019-06-01T00:37:12.153Z,24.30
2019-06-01T00:39:43.701Z,21.70
2019-06-01T00:42:14.479Z,25.15
2019-06-01T00:44:44.782Z,22.13
2019-06-01T00:47:15.024Z,21.55
2019-06-01T00:49:45.263Z,21.35
2019-06-01T00:52:15.502Z,27.77
2019-06-01T00:54:45.727Z,26.20
2019-06-01T00:57:15.975Z,24.20
2019-06-01T00:59:46.192Z,27.17
2019-06-01T01:02:16.471Z,23.80
2019-06-01T01:04:48.307Z,25.55
2019-06-01T01:07:19.050Z,21.77
2019-06-01T01:09:50.665Z,24.60
2019-06-01T01:12:21.310Z,27.20
2019-06-01T01:14:51.531Z,24.43
2019-06-01T01:17:21.784Z,27.75
2019-06-01T01:19:52.038Z,31.55
2019-06-01T01:22:22.266Z,27.22
2019-06-01T01:24:54.533Z,24.32
2019-06-01T01:27:25.121Z,26.02
2019-06-01T01:29:55.368Z,26.87
2019-06-01T01:32:25.607Z,35.73
2019-06-01T01:34:55.828Z,28.07
2019-06-01T01:37:26.077Z,26.70
2019-06-01T01:39:56.352Z,29.95
2019-06-01T01:42:26.521Z,28.62
2019-06-01T01:44:56.770Z,26.82
2019-06-01T01:47:28.421Z,25.60
2019-06-01T01:49:58.717Z,27.98
2019-06-01T01:52:28.961Z,23.65
2019-06-01T01:54:59.186Z,24.75
2019-06-01T01:57:29.795Z,25.70
2019-06-01T02:00:01.725Z,30.23
2019-06-01T02:02:34.446Z,29.25
2019-06-01T02:05:10.093Z,25.85
2019-06-01T02:07:40.446Z,26.60
2019-06-01T02:10:13.104Z,27.62
2019-06-01T02:12:43.698Z,30.32
2019-06-01T02:15:14.461Z,26.70
2019-06-01T02:17:44.764Z,23.38
2019-06-01T02:20:15.053Z,23.55
2019-06-01T02:22:45.804Z,27.75
2019-06-01T02:25:16.289Z,29.70
2019-06-01T02:27:46.489Z,26.33
2019-06-01T02:30:17.588Z,27.65
2019-06-01T02:32:49.259Z,28.50
2019-06-01T02:35:19.922Z,25.32
2019-06-01T02:37:50.332Z,26.57
2019-06-01T02:40:21.664Z,21.57
2019-06-01T02:42:52.370Z,28.10
2019-06-01T02:45:25.279Z,29.12
2019-06-01T02:47:59.544Z,33.25
2019-06-01T02:50:30.045Z,30.23
2019-06-01T02:53:01.635Z,42.40
2019-06-01T02:55:32.230Z,47.08
2019-06-01T02:58:04.272Z,46.68
2019-06-01T03:00:48.171Z,45.88
2019-06-01T03:03:19.047Z,53.50
2019-06-01T03:05:51.004Z,53.38
2019-06-01T03:08:23.265Z,69.85
2019-06-01T03:10:55.785Z,67.45
2019-06-01T03:13:28.550Z,54.40
2019-06-01T03:16:03.442Z,52.20
2019-06-01T03:18:39.813Z,45.85
2019-06-01T03:21:12.800Z,52.03
2019-06-01T03:23:47.010Z,46.98
2019-06-01T03:26:20.129Z,47.45
2019-06-01T03:28:53.009Z,44.63
2019-06-01T03:31:23.372Z,45.90
2019-06-01T03:33:53.670Z,48.63
2019-06-01T03:36:23.917Z,45.28
2019-06-01T03:38:54.386Z,38.05
2019-06-01T03:41:24.646Z,38.95
2019-06-01T03:43:54.845Z,37.83
2019-06-01T03:46:25.087Z,35.45
2019-06-01T03:48:55.357Z,40.30
2019-06-01T03:51:25.637Z,34.75
2019-06-01T03:53:55.995Z,32.40
2019-06-01T03:56:26.387Z,32.83
2019-06-01T03:58:56.626Z,30.57
2019-06-01T04:01:26.896Z,33.23
2019-06-01T04:03:57.630Z,28.77
2019-06-01T04:06:27.966Z,27.45
2019-06-01T04:08:58.227Z,27.82
2019-06-01T04:11:28.482Z,26.87
2019-06-01T04:13:58.717Z,27.58
2019-06-01T04:16:28.960Z,28.67
2019-06-01T04:18:59.180Z,26.15
2019-06-01T04:21:29.434Z,23.15
2019-06-01T04:24:00.073Z,28.42
2019-06-01T04:26:30.436Z,25.92
2019-06-01T04:29:02.177Z,24.45
2019-06-01T04:31:33.032Z,26.25
2019-06-01T04:34:04.531Z,26.02
2019-06-01T04:36:34.891Z,25.15
2019-06-01T04:39:07.690Z,22.07
2019-06-01T04:41:38.286Z,23.45
2019-06-01T04:44:09.924Z,24.30
2019-06-01T04:46:40.307Z,30.10
2019-06-01T04:49:10.901Z,21.50
2019-06-01T04:51:41.202Z,19.17
2019-06-01T04:54:14.461Z,26.87
2019-06-01T04:56:43.958Z,19.77
2019-06-01T04:59:15.319Z,23.67
2019-06-01T05:01:46.046Z,21.30
2019-06-01T05:04:16.679Z,20.37
2019-06-01T05:06:47.267Z,17.60
2019-06-01T05:09:18.041Z,17.85
2019-06-01T05:11:49.226Z,18.07
2019-06-01T05:14:19.531Z,17.20
2019-06-01T05:16:49.773Z,15.98
2019-06-01T05:19:20.364Z,12.98
2019-06-01T05:21:50.588Z,13.45
2019-06-01T05:24:20.847Z,11.57
2019-06-01T05:26:51.521Z,11.93
2019-06-01T05:29:21.948Z,10.93
2019-06-01T05:31:52.542Z,11.50
2019-06-01T05:34:22.839Z,11.50
2019-06-01T05:36:53.103Z,14.00
2019-06-01T05:39:23.676Z,10.78
2019-06-01T05:41:55.521Z,10.82
2019-06-01T05:44:26.906Z,9.03
2019-06-01T05:46:57.505Z,8.13
2019-06-01T05:49:28.428Z,8.65
2019-06-01T05:51:59.104Z,9.65
2019-06-01T05:54:29.396Z,7.00
2019-06-01T05:56:59.629Z,8.73
2019-06-01T05:59:30.186Z,7.45
2019-06-01T06:02:00.857Z,7.55
2019-06-01T06:04:31.524Z,8.85
2019-06-01T06:07:01.840Z,8.38
2019-06-01T06:09:32.057Z,9.10
2019-06-01T06:12:02.902Z,9.48
2019-06-01T06:14:33.526Z,10.85
2019-06-01T06:17:04.260Z,8.40
2019-06-01T06:19:34.916Z,9.18
2019-06-01T06:22:05.219Z,9.90
2019-06-01T06:24:35.437Z,8.93
2019-06-01T06:27:05.772Z,8.13
2019-06-01T06:29:35.967Z,10.20
2019-06-01T06:32:09.244Z,12.23
2019-06-01T06:34:39.123Z,9.03
2019-06-01T06:37:09.680Z,8.28
2019-06-01T06:39:39.911Z,10.32
2019-06-01T06:42:10.498Z,9.05
2019-06-01T06:44:41.174Z,13.50
2019-06-01T06:47:11.994Z,6.92
2019-06-01T06:49:42.296Z,9.03
2019-06-01T06:52:12.542Z,11.05
2019-06-01T06:54:42.760Z,7.03
2019-06-01T06:57:13.009Z,6.20
2019-06-01T06:59:43.247Z,7.28
2019-06-01T07:02:16.721Z,7.42
2019-06-01T07:04:47.847Z,5.28
2019-06-01T07:07:19.511Z,5.37
2019-06-01T07:09:50.615Z,5.50
2019-06-01T07:12:21.303Z,6.65
2019-06-01T07:14:52.111Z,11.18
2019-06-01T07:17:23.521Z,5.58
2019-06-01T07:19:54.052Z,10.50
2019-06-01T07:22:24.313Z,5.10
2019-06-01T07:24:54.941Z,8.03
2019-06-01T07:27:26.139Z,8.35
2019-06-01T07:29:56.896Z,7.17
2019-06-01T07:32:28.606Z,5.58
2019-06-01T07:35:01.241Z,5.40
2019-06-01T07:37:32.728Z,6.42
2019-06-01T07:40:07.328Z,5.37
2019-06-01T07:42:37.579Z,9.60
2019-06-01T07:45:08.453Z,7.05
2019-06-01T07:47:38.707Z,7.55
2019-06-01T07:50:09.787Z,6.92
2019-06-01T07:52:40.398Z,5.50
2019-06-01T07:55:14.414Z,8.15
2019-06-01T07:57:44.283Z,17.80
2019-06-01T08:13:16.297Z,5.53
2019-06-01T08:15:46.914Z,5.35
2019-06-01T08:18:17.640Z,4.70
2019-06-01T08:20:47.988Z,6.58
2019-06-01T08:23:18.630Z,8.55
2019-06-01T08:25:48.943Z,7.25
2019-06-01T08:28:19.235Z,8.90
2019-06-01T08:30:49.475Z,6.67
2019-06-01T08:33:20.181Z,4.92
2019-06-01T08:35:50.610Z,6.78
2019-06-01T08:38:20.878Z,4.47
2019-06-01T08:40:54.346Z,5.75
2019-06-01T08:43:25.513Z,8.10
2019-06-01T08:45:57.092Z,5.55
2019-06-01T08:48:27.718Z,6.87
2019-06-01T08:50:58.133Z,5.10
2019-06-01T08:53:29.976Z,4.97
2019-06-01T08:56:01.062Z,5.30
2019-06-01T08:58:32.491Z,5.30
2019-06-01T09:01:03.174Z,4.67
2019-06-01T09:03:36.565Z,5.40
2019-06-01T09:06:06.422Z,6.43
2019-06-01T09:08:37.203Z,5.47
2019-06-01T09:11:07.474Z,7.55
2019-06-01T09:13:37.789Z,4.35
2019-06-01T09:16:09.943Z,4.40
2019-06-01T09:18:40.558Z,7.40
2019-06-01T09:21:11.133Z,5.55
2019-06-01T09:23:41.792Z,6.67
2019-06-01T09:26:12.683Z,4.30
2019-06-01T09:28:42.987Z,7.42
2019-06-01T09:31:13.687Z,5.15
2019-06-01T09:33:44.365Z,7.17
2019-06-01T09:36:15.054Z,4.40
2019-06-01T09:38:45.485Z,4.85
2019-06-01T09:41:16.127Z,4.00
2019-06-01T09:43:46.503Z,7.28
2019-06-01T09:46:17.269Z,7.10
2019-06-01T09:48:50.556Z,8.60
2019-06-01T09:51:21.301Z,5.08
2019-06-01T09:53:51.689Z,5.90
2019-06-01T10:09:09.719Z,5.75
2019-06-01T10:11:39.988Z,7.25
2019-06-01T10:14:10.633Z,5.37
2019-06-01T10:16:43.019Z,7.47
2019-06-01T10:19:13.667Z,9.53
2019-06-01T10:21:44.006Z,8.48
2019-06-01T10:24:14.733Z,6.40
2019-06-01T10:26:45.038Z,8.70
2019-06-01T10:29:15.738Z,5.83
2019-06-01T10:31:46.427Z,6.62
2019-06-01T10:34:17.172Z,6.42
2019-06-01T10:36:47.820Z,6.03
2019-06-01T10:39:19.716Z,5.50
2019-06-01T10:41:50.246Z,9.38
2019-06-01T10:44:20.534Z,6.95
2019-06-01T10:46:52.254Z,5.95
2019-06-01T10:49:22.851Z,6.03
2019-06-01T10:51:53.441Z,10.00
2019-06-01T10:54:23.734Z,7.22
2019-06-01T10:56:54.315Z,9.73
2019-06-01T10:59:24.886Z,7.25
2019-06-01T11:01:55.113Z,9.60
2019-06-01T11:04:27.098Z,5.20
2019-06-01T11:06:57.735Z,6.55
2019-06-01T11:09:28.619Z,6.75
2019-06-01T11:11:59.431Z,6.50
2019-06-01T11:14:30.279Z,5.55
2019-06-01T11:17:01.133Z,8.68
2019-06-01T11:19:31.474Z,6.08
2019-06-01T11:22:02.077Z,6.83
2019-06-01T11:24:33.270Z,5.55
2019-06-01T11:27:04.269Z,9.23
2019-06-01T11:29:41.144Z,6.00
2019-06-01T11:32:07.387Z,5.97
2019-06-01T11:34:38.460Z,5.53
2019-06-01T11:37:09.258Z,5.70
2019-06-01T11:39:40.561Z,5.15
2019-06-01T11:42:12.048Z,9.63
2019-06-01T11:44:42.817Z,6.25
2019-06-01T11:47:14.711Z,5.25
2019-06-01T11:49:45.186Z,8.93
2019-06-01T11:52:15.414Z,9.50
2019-06-01T11:54:45.757Z,6.15
2019-06-01T11:57:15.987Z,6.50
2019-06-01T11:59:47.684Z,12.45
2019-06-01T12:02:17.973Z,7.55
2019-06-01T12:04:48.258Z,5.35
2019-06-01T12:07:18.661Z,7.90
2019-06-01T12:09:49.138Z,5.90
2019-06-01T12:12:19.754Z,7.28
2019-06-01T12:14:51.503Z,7.67
2019-06-01T12:17:21.814Z,8.85
2019-06-01T12:19:52.430Z,5.70
2019-06-01T12:22:23.140Z,6.85
2019-06-01T12:24:53.527Z,4.25
2019-06-01T12:27:23.748Z,8.78
2019-06-01T12:29:54.072Z,6.20
2019-06-01T12:32:24.281Z,8.60
2019-06-01T12:34:56.096Z,6.47
2019-06-01T12:37:45.638Z,6.20
2019-06-01T12:39:58.866Z,6.25
2019-06-01T12:42:29.254Z,7.97
2019-06-01T12:44:59.471Z,9.88
2019-06-01T12:47:30.063Z,6.58
2019-06-01T12:50:00.704Z,4.80
2019-06-01T12:52:31.645Z,6.15
2019-06-01T12:55:01.880Z,4.65
2019-06-01T12:57:32.121Z,5.60
2019-06-01T13:00:02.358Z,5.10
2019-06-01T13:02:33.947Z,5.60
2019-06-01T13:05:09.092Z,5.70
2019-06-01T13:10:11.307Z,5.95
2019-06-01T13:12:41.502Z,5.50
2019-06-01T13:15:14.427Z,6.65
2019-06-01T13:17:47.305Z,7.50
2019-06-01T13:20:18.452Z,4.30
2019-06-01T13:22:51.742Z,4.62
2019-06-01T13:25:23.478Z,5.45
2019-06-01T13:27:53.699Z,4.22
2019-06-01T13:30:23.936Z,5.62
2019-06-01T13:32:54.167Z,3.67
2019-06-01T13:35:24.425Z,4.72
2019-06-01T13:38:10.904Z,7.20
2019-06-01T13:40:27.320Z,4.25
2019-06-01T13:42:57.931Z,3.52
2019-06-01T13:45:28.591Z,3.30
2019-06-01T13:47:58.889Z,7.08
2019-06-01T13:50:29.115Z,5.72
2019-06-01T13:52:59.356Z,6.97
2019-06-01T13:55:29.578Z,4.28
2019-06-01T13:58:01.340Z,9.55
2019-06-01T14:00:31.602Z,4.00
2019-06-01T14:03:01.949Z,6.30
2019-06-01T14:05:32.338Z,3.05
2019-06-01T14:08:02.627Z,3.72
2019-06-01T14:10:32.813Z,4.60
2019-06-01T14:13:05.419Z,7.95
2019-06-01T14:15:35.017Z,6.45
2019-06-01T14:18:05.850Z,4.75
2019-06-01T14:20:36.405Z,6.65
2019-06-01T14:23:07.497Z,4.65
2019-06-01T14:25:37.790Z,5.35
2019-06-01T14:28:08.022Z,4.42
2019-06-01T14:30:38.272Z,3.80
2019-06-01T14:33:08.488Z,4.60
2019-06-01T14:35:38.723Z,3.30
2019-06-01T14:38:08.974Z,5.90
2019-06-01T14:40:41.447Z,2.87
2019-06-01T14:43:11.213Z,4.62
2019-06-01T14:45:41.502Z,6.22
2019-06-01T14:48:12.220Z,4.50
2019-06-01T14:50:44.171Z,3.27
2019-06-01T14:53:14.792Z,6.83
2019-06-01T14:55:45.533Z,5.33
2019-06-01T14:58:17.349Z,4.30
2019-06-01T15:00:50.147Z,4.50
2019-06-01T15:03:20.482Z,4.95
2019-06-01T15:05:50.778Z,6.90
2019-06-01T15:08:20.999Z,5.85
2019-06-01T15:10:53.271Z,6.85
2019-06-01T15:13:23.646Z,6.08
2019-06-01T15:15:53.974Z,8.40
2019-06-01T15:18:24.417Z,8.10
2019-06-01T15:20:55.883Z,6.85
2019-06-01T15:23:26.772Z,5.85
2019-06-01T15:25:58.519Z,7.12
2019-06-01T15:28:28.881Z,5.85
2019-06-01T15:30:59.517Z,7.87
2019-06-01T15:33:29.867Z,4.58
2019-06-01T15:36:01.760Z,5.28
2019-06-01T15:38:32.266Z,5.05
2019-06-01T15:41:02.552Z,7.37
2019-06-01T15:43:33.084Z,4.70
2019-06-01T15:46:03.404Z,4.92
2019-06-01T15:48:33.630Z,3.15
2019-06-01T15:51:07.134Z,4.10
2019-06-01T15:53:36.203Z,4.40
2019-06-01T15:56:06.501Z,5.25
2019-06-01T15:58:51.781Z,5.55
2019-06-01T16:01:08.772Z,4.47
2019-06-01T16:03:38.984Z,6.12
2019-06-01T16:06:09.218Z,6.05
2019-06-01T16:08:41.061Z,10.32
2019-06-01T16:11:11.324Z,5.75
2019-06-01T16:13:41.732Z,5.83
2019-06-01T16:16:12.051Z,5.22
2019-06-01T16:18:42.259Z,4.45
2019-06-01T16:21:13.836Z,6.37
2019-06-01T16:23:49.927Z,6.17
2019-06-01T16:26:16.875Z,4.65
2019-06-01T16:28:47.175Z,8.08
2019-06-01T16:31:17.432Z,5.12
2019-06-01T16:33:47.662Z,3.98
2019-06-01T16:36:18.225Z,5.08
2019-06-01T16:38:48.869Z,4.70
2019-06-01T16:41:19.408Z,3.85
2019-06-01T16:43:51.180Z,5.28
2019-06-01T16:46:23.564Z,6.50
2019-06-01T16:48:53.866Z,5.80
2019-06-01T16:51:24.119Z,5.95
2019-06-01T16:53:55.671Z,4.65
2019-06-01T16:56:26.434Z,6.20
2019-06-01T16:58:58.080Z,7.40
2019-06-01T17:01:28.588Z,5.20
2019-06-01T17:04:02.659Z,6.20
2019-06-01T17:09:05.252Z,7.67
2019-06-01T17:11:36.095Z,8.38
2019-06-01T17:14:08.376Z,5.20
2019-06-01T17:16:39.024Z,4.00
2019-06-01T17:19:09.949Z,6.00
2019-06-01T17:21:40.376Z,8.33
2019-06-01T17:24:11.226Z,7.37
2019-06-01T17:26:41.897Z,8.20
2019-06-01T17:29:12.583Z,12.07
2019-06-01T17:31:53.841Z,7.28
2019-06-01T17:34:14.892Z,5.70
2019-06-01T17:36:45.146Z,14.03
2019-06-01T17:39:15.359Z,9.83
2019-06-01T17:41:46.113Z,13.58
2019-06-01T17:44:16.773Z,16.40
2019-06-01T17:46:53.307Z,8.48
2019-06-01T17:49:19.545Z,7.95
2019-06-01T17:51:49.787Z,9.28
2019-06-01T17:54:22.583Z,12.82
2019-06-01T17:56:52.891Z,10.50
2019-06-01T17:59:23.237Z,7.62
2019-06-01T18:01:53.520Z,6.58
2019-06-01T18:04:23.836Z,11.15
2019-06-01T18:06:54.072Z,10.25
2019-06-01T18:09:24.325Z,10.43
2019-06-01T18:11:54.725Z,8.65
2019-06-01T18:14:25.432Z,6.08
2019-06-01T18:16:57.294Z,11.40
2019-06-01T18:19:27.526Z,11.40
2019-06-01T18:21:57.775Z,11.00
2019-06-01T18:24:28.439Z,12.07
2019-06-01T18:26:58.830Z,13.65
2019-06-01T18:29:32.269Z,7.53
2019-06-01T18:32:03.032Z,11.20
2019-06-01T18:34:34.807Z,9.60
2019-06-01T18:37:05.773Z,11.20
2019-06-01T18:39:36.486Z,10.95
2019-06-01T18:42:06.806Z,13.40
2019-06-01T18:44:37.459Z,16.35
2019-06-01T18:47:07.897Z,14.73
2019-06-01T18:49:39.659Z,9.13
2019-06-01T18:52:10.649Z,8.88
2019-06-01T18:54:41.619Z,12.90
2019-06-01T18:57:20.490Z,10.28
2019-06-01T18:59:45.019Z,14.33
2019-06-01T19:02:16.319Z,14.47
2019-06-01T19:04:46.900Z,12.80
2019-06-01T19:07:18.477Z,14.35
2019-06-01T19:09:49.857Z,10.20
2019-06-01T19:12:20.093Z,8.68
2019-06-01T19:14:50.889Z,13.10
2019-06-01T19:17:21.541Z,12.50
2019-06-01T19:19:51.858Z,9.48
2019-06-01T19:22:22.080Z,16.48
2019-06-01T19:24:52.385Z,9.73
2019-06-01T19:27:22.672Z,25.68
2019-06-01T19:29:52.994Z,16.12
2019-06-01T19:32:23.575Z,15.28
2019-06-01T19:34:54.324Z,23.65
2019-06-01T19:37:25.527Z,15.53
2019-06-01T19:39:56.995Z,15.85
2019-06-01T19:42:27.360Z,17.17
2019-06-01T19:44:58.069Z,16.93
2019-06-01T19:47:28.374Z,16.02
2019-06-01T19:49:58.968Z,21.25
2019-06-01T19:52:30.014Z,24.23
2019-06-01T19:55:00.337Z,18.87
2019-06-01T19:57:30.585Z,20.92
2019-06-01T20:00:00.811Z,33.70
2019-06-01T20:02:34.071Z,35.15
2019-06-01T20:05:03.934Z,27.77
2019-06-01T20:07:34.256Z,25.70
2019-06-01T20:10:06.692Z,35.48
2019-06-01T20:12:36.992Z,31.07
2019-06-01T20:15:08.467Z,37.75
2019-06-01T20:17:38.800Z,37.05
2019-06-01T20:20:10.638Z,31.23
2019-06-01T20:22:41.530Z,30.65
2019-06-01T20:25:13.262Z,38.02
2019-06-01T20:27:43.539Z,53.90
2019-06-01T20:30:15.771Z,55.05
2019-06-01T20:32:46.261Z,43.92
2019-06-01T20:35:18.033Z,55.73
2019-06-01T20:37:49.005Z,46.68
2019-06-01T20:40:20.355Z,50.88
2019-06-01T20:42:51.142Z,46.80
2019-06-01T20:45:22.782Z,45.38
2019-06-01T20:47:53.424Z,47.05
2019-06-01T20:50:24.060Z,49.20
2019-06-01T20:52:54.399Z,41.85
2019-06-01T20:55:24.845Z,42.88
2019-06-01T20:57:55.100Z,34.75
2019-06-01T21:00:25.325Z,40.90
2019-06-01T21:02:54.577Z,35.43
2019-06-01T21:05:24.600Z,35.85
2019-06-01T21:07:57.392Z,35.13
2019-06-01T21:10:27.219Z,31.77
2019-06-01T21:12:57.872Z,28.05
2019-06-01T21:15:28.172Z,35.45
2019-06-01T21:17:58.792Z,28.23
2019-06-01T21:20:30.093Z,23.85
2019-06-01T21:23:00.870Z,26.02
2019-06-01T21:25:31.218Z,21.17
2019-06-01T21:28:01.824Z,20.80
2019-06-01T21:30:32.146Z,22.87
2019-06-01T21:33:02.379Z,26.97
2019-06-01T21:35:32.620Z,25.17
2019-06-01T21:38:04.133Z,23.83
2019-06-01T21:40:34.719Z,22.30
2019-06-01T21:43:23.140Z,24.65
2019-06-01T21:45:36.949Z,23.45
2019-06-01T21:48:07.570Z,27.42
2019-06-01T21:50:37.868Z,21.55
2019-06-01T21:53:08.126Z,27.07
2019-06-01T21:55:38.330Z,22.85
2019-06-01T21:58:08.625Z,22.93
2019-06-01T22:00:39.202Z,22.82
2019-06-01T22:03:11.208Z,26.20
2019-06-01T22:05:41.433Z,29.15
2019-06-01T22:08:11.688Z,24.25
2019-06-01T22:10:42.281Z,29.27
2019-06-01T22:13:18.626Z,30.75
2019-06-01T22:15:44.542Z,25.05
2019-06-01T22:18:14.821Z,25.65
2019-06-01T22:20:45.072Z,26.73
2019-06-01T22:23:15.329Z,21.60
2019-06-01T22:25:45.608Z,27.87
2019-06-01T22:28:15.829Z,27.65
2019-06-01T22:30:46.119Z,37.58
2019-06-01T22:33:16.412Z,29.15
2019-06-01T22:35:46.680Z,29.25
2019-06-01T22:38:16.940Z,28.95
2019-06-01T22:40:47.604Z,28.40
2019-06-01T22:43:32.899Z,29.50
2019-06-01T22:45:50.445Z,26.82
2019-06-01T22:48:20.667Z,25.00
2019-06-01T22:50:50.978Z,26.90
2019-06-01T22:53:22.003Z,28.57
2019-06-01T22:55:52.981Z,22.90
2019-06-01T22:58:23.660Z,27.35
2019-06-01T23:00:53.976Z,31.02
2019-06-01T23:03:24.240Z,31.70
2019-06-01T23:05:54.453Z,32.20
2019-06-01T23:08:25.691Z,27.30
2019-06-01T23:10:55.975Z,27.20
2019-06-01T23:13:26.287Z,32.95
2019-06-01T23:15:56.464Z,37.65
2019-06-01T23:18:27.962Z,34.95
2019-06-01T23:20:58.788Z,38.08
2019-06-01T23:23:30.155Z,33.02
2019-06-01T23:26:01.020Z,29.60
2019-06-01T23:28:32.444Z,39.03
2019-06-01T23:31:03.692Z,35.58
2019-06-01T23:33:34.010Z,36.98
2019-06-01T23:36:04.591Z,31.02
2019-06-01T23:38:34.931Z,34.55
2019-06-01T23:41:05.410Z,34.35
2019-06-01T23:43:35.637Z,36.95
2019-06-01T23:46:05.855Z,30.72
2019-06-01T23:48:36.114Z,31.62
2019-06-01T23:51:06.335Z,30.75
2019-06-01T23:53:36.623Z,33.25
2019-06-01T23:56:06.853Z,33.33
2019-06-01T23:58:37.176Z,28.30
